Time;durP1;ratioP1;P1;durP2;ratioP2;P2;SDS_P1;SDS_P2;PMS_P1;PMS_P2;Temp;Humidity;BMP_temperature;BMP_pressure;BME280_temperature;BME280_humidity;BME280_pressure;Samples;Min_cycle;Max_cycle;Signal;HPM_P1;HPM_P2
2022/12/04 00:01:56;;;;;;;43.28;19.58;;;;;;;;;;5114360;28;20030;-78
2022/12/04 00:04:42;;;;;;;41.22;20.20;;;;;;;;;;5104514;28;20104;-78
2022/12/04 00:07:27;;;;;;;41.20;19.60;;;;;;;;;;5118341;28;20432;-78
2022/12/04 00:10:13;;;;;;;44.35;20.73;;;;;;;;;;5104540;28;20023;-77
2022/12/04 00:12:58;;;;;;;45.70;19.88;;;;;;;;;;5118085;28;20084;-77
2022/12/04 00:15:44;;;;;;;44.60;20.73;;;;;;;;;;5103810;28;20024;-77
2022/12/04 00:18:30;;;;;;;42.65;19.90;;;;;;;;;;5117553;28;20024;-78
2022/12/04 00:21:16;;;;;;;42.33;18.50;;;;;;;;;;5104751;28;20011;-78
2022/12/04 00:24:01;;;;;;;45.80;19.80;;;;;;;;;;5118298;28;20016;-76
2022/12/04 00:26:47;;;;;;;38.80;19.25;;;;;;;;;;5117849;28;20018;-77
2022/12/04 00:29:33;;;;;;;43.53;19.25;;;;;;;;;;5117692;28;20107;-77
2022/12/04 00:32:18;;;;;;;42.65;20.60;;;;;;;;;;5117860;28;20031;-78
2022/12/04 00:35:04;;;;;;;46.72;20.77;;;;;;;;;;5103117;28;20099;-76
2022/12/04 00:37:50;;;;;;;42.45;19.63;;;;;;;;;;5117039;28;20135;-77
2022/12/04 00:40:35;;;;;;;45.60;21.17;;;;;;;;;;5117679;28;20026;-78
2022/12/04 00:43:22;;;;;;;47.53;21.60;;;;;;;;;;5117912;28;20077;-77
2022/12/04 00:46:08;;;;;;;42.20;20.67;;;;;;;;;;5117830;28;20016;-77
2022/12/04 00:48:53;;;;;;;54.90;22.50;;;;;;;;;;5117129;28;20165;-78
2022/12/04 00:51:39;;;;;;;43.17;21.38;;;;;;;;;;5117158;28;20047;-77
2022/12/04 00:54:24;;;;;;;46.05;21.95;;;;;;;;;;5103804;28;20024;-78
2022/12/04 00:57:10;;;;;;;47.63;23.00;;;;;;;;;;5117213;28;20092;-77
2022/12/04 00:59:56;;;;;;;47.00;22.55;;;;;;;;;;5117458;28;20424;-77
2022/12/04 01:02:41;;;;;;;50.33;22.38;;;;;;;;;;5117120;28;20336;-77
2022/12/04 01:05:27;;;;;;;50.58;22.98;;;;;;;;;;5117186;28;20012;-77
2022/12/04 01:08:12;;;;;;;50.83;22.88;;;;;;;;;;5117203;28;20030;-78
2022/12/04 01:10:58;;;;;;;47.08;22.30;;;;;;;;;;5103690;28;20042;-79
2022/12/04 01:13:44;;;;;;;45.22;22.05;;;;;;;;;;5117420;28;20027;-77
2022/12/04 01:16:34;;;;;;;49.40;22.77;;;;;;;;;;5102500;28;20076;-78
2022/12/04 01:19:20;;;;;;;46.92;22.20;;;;;;;;;;5103329;28;20042;-78
2022/12/04 01:22:06;;;;;;;44.55;21.27;;;;;;;;;;5116824;28;20027;-77
2022/12/04 01:24:54;;;;;;;45.70;21.85;;;;;;;;;;5117062;28;20439;-79
2022/12/04 01:27:39;;;;;;;43.40;21.70;;;;;;;;;;5103398;28;20027;-77
2022/12/04 01:30:25;;;;;;;42.40;21.85;;;;;;;;;;5103048;28;20020;-77
2022/12/04 01:33:10;;;;;;;45.42;22.02;;;;;;;;;;5116476;28;20363;-78
2022/12/04 01:35:57;;;;;;;47.10;22.08;;;;;;;;;;5116052;28;20324;-79
2022/12/04 01:38:42;;;;;;;46.03;22.58;;;;;;;;;;5102058;28;20046;-78
2022/12/04 01:41:29;;;;;;;45.33;22.73;;;;;;;;;;5116381;28;20023;-78
2022/12/04 01:44:22;;;;;;;40.72;21.50;;;;;;;;;;5102425;28;20016;-78
2022/12/04 01:47:08;;;;;;;46.80;21.77;;;;;;;;;;5116428;28;20051;-78
2022/12/04 01:49:54;;;;;;;42.67;21.42;;;;;;;;;;5119593;28;20047;-77
2022/12/04 01:52:39;;;;;;;46.67;22.67;;;;;;;;;;5128733;28;20351;-79
2022/12/04 01:55:25;;;;;;;42.15;21.88;;;;;;;;;;5116240;28;20438;-78
2022/12/04 01:58:11;;;;;;;45.47;22.00;;;;;;;;;;5101059;28;20023;-78
2022/12/04 02:00:59;;;;;;;42.70;21.42;;;;;;;;;;5101331;28;20435;-77
2022/12/04 02:03:45;;;;;;;42.88;22.30;;;;;;;;;;5116542;28;20024;-78
2022/12/04 02:06:30;;;;;;;45.80;21.77;;;;;;;;;;5101640;28;20438;-78
2022/12/04 02:09:16;;;;;;;47.45;23.08;;;;;;;;;;5115701;28;20075;-79
2022/12/04 02:12:07;;;;;;;44.42;22.30;;;;;;;;;;5115150;28;20075;-77
2022/12/04 02:15:05;;;;;;;49.00;22.65;;;;;;;;;;5116543;28;20020;-77
2022/12/04 02:18:16;;;;;;;46.60;21.95;;;;;;;;;;5101039;28;20020;-78
2022/12/04 02:21:14;;;;;;;50.47;23.67;;;;;;;;;;5102753;28;20031;-78
2022/12/04 02:24:11;;;;;;;49.40;22.70;;;;;;;;;;5101333;28;20440;-78
2022/12/04 02:27:06;;;;;;;47.03;23.02;;;;;;;;;;5101244;28;20024;-79
2022/12/04 02:29:58;;;;;;;47.97;23.23;;;;;;;;;;5115719;28;20423;-79
2022/12/04 02:32:46;;;;;;;44.85;22.45;;;;;;;;;;5116915;27;20032;-79
2022/12/04 02:35:38;;;;;;;45.75;22.98;;;;;;;;;;5115442;28;20408;-79
2022/12/04 02:38:31;;;;;;;44.63;21.88;;;;;;;;;;5114246;28;20489;-77
2022/12/04 02:41:26;;;;;;;48.78;22.23;;;;;;;;;;5115285;28;20046;-78
2022/12/04 02:44:12;;;;;;;43.95;22.00;;;;;;;;;;5101191;28;20020;-78
2022/12/04 02:47:00;;;;;;;46.28;22.75;;;;;;;;;;5115121;28;20110;-78
2022/12/04 02:50:06;;;;;;;48.22;22.73;;;;;;;;;;5100766;28;20019;-78
2022/12/04 02:52:59;;;;;;;49.35;21.92;;;;;;;;;;5115347;28;20019;-78
2022/12/04 02:55:52;;;;;;;47.42;22.98;;;;;;;;;;5115391;28;20027;-78
2022/12/04 02:58:41;;;;;;;42.88;21.88;;;;;;;;;;5115436;28;20033;-78
2022/12/04 03:01:33;;;;;;;48.35;22.38;;;;;;;;;;5100368;28;20023;-78
2022/12/04 03:04:20;;;;;;;48.03;22.05;;;;;;;;;;5116751;28;20092;-78
2022/12/04 03:07:10;;;;;;;46.58;22.10;;;;;;;;;;5100142;28;20111;-78
2022/12/04 03:10:02;;;;;;;44.08;21.13;;;;;;;;;;5100539;28;20023;-78
2022/12/04 03:12:57;;;;;;;41.10;20.50;;;;;;;;;;5101249;28;20024;-78
2022/12/04 03:15:46;;;;;;;40.55;20.80;;;;;;;;;;5099893;28;20125;-78
2022/12/04 03:18:42;;;;;;;40.08;20.63;;;;;;;;;;5116485;28;20019;-79
2022/12/04 03:21:30;;;;;;;44.17;20.80;;;;;;;;;;5099992;28;20031;-78
2022/12/04 03:24:22;;;;;;;39.67;19.90;;;;;;;;;;5115639;28;20019;-78
2022/12/04 03:27:34;;;;;;;43.08;21.02;;;;;;;;;;5114782;28;20034;-78
2022/12/04 03:30:23;;;;;;;44.90;20.27;;;;;;;;;;5114500;28;20056;-78
2022/12/04 03:33:09;;;;;;;44.25;21.00;;;;;;;;;;5113804;28;20027;-79
2022/12/04 03:35:56;;;;;;;42.53;20.00;;;;;;;;;;5100076;28;20023;-78
2022/12/04 03:38:47;;;;;;;39.38;20.17;;;;;;;;;;5113764;28;20047;-78
2022/12/04 03:41:39;;;;;;;38.58;18.70;;;;;;;;;;5086319;28;20045;-79
2022/12/04 03:44:27;;;;;;;37.97;19.05;;;;;;;;;;5114394;28;20108;-78
2022/12/04 03:47:17;;;;;;;38.22;18.77;;;;;;;;;;5114213;28;20016;-78
2022/12/04 03:50:14;;;;;;;38.72;19.00;;;;;;;;;;5115555;28;20024;-78
2022/12/04 03:53:17;;;;;;;35.10;18.60;;;;;;;;;;5114313;28;20034;-78
2022/12/04 03:56:17;;;;;;;35.38;17.08;;;;;;;;;;5114716;28;20024;-78
2022/12/04 03:59:09;;;;;;;36.60;17.30;;;;;;;;;;5114392;28;20360;-78
2022/12/04 04:01:56;;;;;;;36.28;17.13;;;;;;;;;;5115501;28;20019;-78
2022/12/04 04:04:44;;;;;;;34.80;17.13;;;;;;;;;;5114177;28;20022;-77
2022/12/04 04:07:43;;;;;;;33.78;16.92;;;;;;;;;;5114086;28;20035;-78
2022/12/04 04:10:28;;;;;;;34.47;16.33;;;;;;;;;;5115840;28;20020;-78
2022/12/04 04:25:38;;;;;;;29.67;15.80;;;;;;;;;;5114307;28;20008;-78
2022/12/04 04:28:26;;;;;;;30.52;15.48;;;;;;;;;;5113893;28;20023;-78
2022/12/04 04:31:30;;;;;;;31.27;15.45;;;;;;;;;;5114501;28;20020;-78
2022/12/04 04:34:16;;;;;;;27.52;14.35;;;;;;;;;;5114127;28;20030;-79
2022/12/04 04:37:10;;;;;;;28.58;15.23;;;;;;;;;;5113546;28;20046;-78
2022/12/04 04:39:56;;;;;;;26.52;14.30;;;;;;;;;;5112709;28;20402;-78
2022/12/04 04:42:57;;;;;;;24.08;13.70;;;;;;;;;;5113868;28;20058;-78
2022/12/04 04:45:44;;;;;;;24.45;13.52;;;;;;;;;;5114009;28;20461;-78
2022/12/04 04:48:41;;;;;;;26.48;14.30;;;;;;;;;;5113844;28;20039;-79
2022/12/04 04:51:27;;;;;;;28.02;14.52;;;;;;;;;;5117145;28;20059;-79
2022/12/04 04:54:14;;;;;;;25.98;13.50;;;;;;;;;;5102620;28;20034;-79
2022/12/04 04:57:00;;;;;;;25.60;13.93;;;;;;;;;;5102582;28;20020;-78
2022/12/04 04:59:45;;;;;;;27.60;14.20;;;;;;;;;;5103414;28;20069;-78
2022/12/04 05:02:32;;;;;;;25.02;13.48;;;;;;;;;;5117226;28;20050;-78
2022/12/04 05:05:17;;;;;;;27.05;13.90;;;;;;;;;;5103304;28;20080;-78
2022/12/04 05:08:03;;;;;;;25.50;13.43;;;;;;;;;;5103403;28;20363;-78
2022/12/04 05:10:49;;;;;;;26.15;14.40;;;;;;;;;;5102236;28;20093;-79
2022/12/04 05:13:34;;;;;;;24.30;14.05;;;;;;;;;;5102822;28;20023;-78
2022/12/04 05:16:20;;;;;;;24.95;13.70;;;;;;;;;;5116792;28;20065;-77
2022/12/04 05:22:11;;;;;;;25.35;12.80;;;;;;;;;;5117574;28;20102;-78
2022/12/04 05:24:57;;;;;;;23.48;12.68;;;;;;;;;;5102570;28;20084;-77
2022/12/04 05:27:42;;;;;;;22.00;12.63;;;;;;;;;;5117182;28;20024;-77
2022/12/04 05:30:28;;;;;;;25.20;12.95;;;;;;;;;;5116194;28;20405;-78
2022/12/04 05:33:13;;;;;;;22.50;12.68;;;;;;;;;;5116652;28;20031;-80
2022/12/04 05:36:00;;;;;;;23.27;12.77;;;;;;;;;;5101986;28;20026;-78
2022/12/04 05:38:46;;;;;;;20.58;11.38;;;;;;;;;;5102161;28;20048;-78
2022/12/04 05:41:31;;;;;;;23.73;12.85;;;;;;;;;;5117257;28;20111;-78
2022/12/04 05:44:17;;;;;;;22.23;12.55;;;;;;;;;;5116634;28;20023;-77
2022/12/04 05:47:02;;;;;;;25.00;12.80;;;;;;;;;;5103012;28;20113;-77
2022/12/04 05:49:48;;;;;;;24.63;13.20;;;;;;;;;;5116441;28;20027;-78
2022/12/04 05:52:34;;;;;;;27.50;12.90;;;;;;;;;;5116457;28;20084;-77
2022/12/04 05:55:19;;;;;;;29.40;15.70;;;;;;;;;;5116614;28;20024;-78
2022/12/04 05:58:05;;;;;;;32.65;16.40;;;;;;;;;;5118124;28;20016;-77
2022/12/04 06:00:50;;;;;;;32.80;16.48;;;;;;;;;;5123090;28;20053;-78
2022/12/04 06:03:36;;;;;;;35.10;16.92;;;;;;;;;;5102041;28;20016;-77
2022/12/04 06:06:23;;;;;;;42.30;21.02;;;;;;;;;;5116206;28;20102;-78
2022/12/04 06:09:10;;;;;;;35.95;18.92;;;;;;;;;;5115702;28;20360;-78
2022/12/04 06:11:56;;;;;;;40.05;19.08;;;;;;;;;;5116525;28;20102;-78
2022/12/04 06:14:41;;;;;;;36.97;17.70;;;;;;;;;;5116021;28;20081;-78
2022/12/04 06:17:27;;;;;;;37.17;19.08;;;;;;;;;;5101398;28;20162;-78
2022/12/04 06:20:12;;;;;;;39.95;19.77;;;;;;;;;;5101495;28;20398;-79
2022/12/04 06:22:58;;;;;;;39.92;19.95;;;;;;;;;;5101853;28;20066;-80
2022/12/04 06:25:44;;;;;;;41.10;19.42;;;;;;;;;;5105488;28;20020;-78
2022/12/04 06:28:29;;;;;;;37.67;19.38;;;;;;;;;;5116375;28;20115;-79
2022/12/04 06:31:15;;;;;;;38.75;20.20;;;;;;;;;;5132614;28;20032;-79
2022/12/04 06:34:01;;;;;;;40.38;20.70;;;;;;;;;;5117038;28;20041;-78
2022/12/04 06:36:46;;;;;;;40.25;20.10;;;;;;;;;;5111290;28;20048;-79
2022/12/04 06:39:32;;;;;;;39.97;19.05;;;;;;;;;;5120170;28;20358;-78
2022/12/04 06:42:18;;;;;;;37.92;17.83;;;;;;;;;;5119466;28;20047;-78
2022/12/04 06:45:04;;;;;;;36.38;18.80;;;;;;;;;;5128185;27;20015;-78
2022/12/04 06:47:49;;;;;;;39.45;18.38;;;;;;;;;;5129930;28;20023;-77
2022/12/04 06:50:35;;;;;;;38.70;18.60;;;;;;;;;;5131858;28;20034;-79
2022/12/04 06:53:20;;;;;;;35.50;18.25;;;;;;;;;;5134459;28;20016;-78
2022/12/04 06:56:07;;;;;;;40.10;19.05;;;;;;;;;;5134836;28;20023;-79
2022/12/04 06:58:54;;;;;;;38.15;18.15;;;;;;;;;;5136081;28;20015;-78
2022/12/04 07:01:39;;;;;;;32.58;17.33;;;;;;;;;;5135731;28;20088;-78
2022/12/04 07:04:25;;;;;;;33.80;17.42;;;;;;;;;;5136964;28;20011;-78
2022/12/04 07:07:10;;;;;;;31.15;16.27;;;;;;;;;;5135958;28;20029;-80
2022/12/04 07:09:56;;;;;;;30.13;15.55;;;;;;;;;;5120835;28;20015;-79
2022/12/04 07:12:41;;;;;;;34.13;16.58;;;;;;;;;;5122270;28;20036;-78
2022/12/04 07:15:27;;;;;;;28.50;14.98;;;;;;;;;;5127708;28;20020;-79
2022/12/04 07:18:13;;;;;;;28.38;15.95;;;;;;;;;;5106273;28;20097;-79
2022/12/04 07:20:58;;;;;;;27.92;15.20;;;;;;;;;;5118856;28;20015;-79
2022/12/04 07:23:47;;;;;;;26.67;14.30;;;;;;;;;;5119044;28;20026;-79
2022/12/04 07:26:33;;;;;;;25.05;14.15;;;;;;;;;;5118386;28;20414;-81
2022/12/04 07:29:18;;;;;;;28.75;14.32;;;;;;;;;;5119871;28;20027;-78
2022/12/04 07:32:04;;;;;;;29.15;15.10;;;;;;;;;;5109331;28;20083;-80
2022/12/04 07:34:49;;;;;;;28.08;15.10;;;;;;;;;;5120251;28;20031;-79
2022/12/04 07:37:35;;;;;;;24.90;14.50;;;;;;;;;;5125060;28;20516;-79
2022/12/04 07:40:21;;;;;;;28.42;14.48;;;;;;;;;;5130685;28;20027;-79
2022/12/04 07:43:06;;;;;;;29.85;15.70;;;;;;;;;;5126789;28;20024;-79
2022/12/04 07:45:52;;;;;;;31.75;16.30;;;;;;;;;;5127691;28;20338;-79
2022/12/04 07:48:38;;;;;;;39.35;18.40;;;;;;;;;;5129126;28;20079;-79
2022/12/04 07:51:25;;;;;;;33.83;18.25;;;;;;;;;;5117262;28;20083;-81
2022/12/04 07:54:10;;;;;;;40.08;18.70;;;;;;;;;;5118237;28;20016;-80
2022/12/04 07:56:56;;;;;;;36.58;19.15;;;;;;;;;;5132876;28;20041;-80
2022/12/04 07:59:42;;;;;;;34.67;18.45;;;;;;;;;;5132100;28;20000;-80
2022/12/04 08:02:28;;;;;;;43.33;21.42;;;;;;;;;;5119689;28;20073;-80
2022/12/04 08:05:13;;;;;;;49.15;23.25;;;;;;;;;;5130661;28;20027;-82
2022/12/04 08:07:59;;;;;;;49.15;23.60;;;;;;;;;;5118820;28;20417;-80
2022/12/04 08:10:45;;;;;;;47.53;23.13;;;;;;;;;;5116891;28;20499;-79
2022/12/04 08:13:30;;;;;;;48.47;23.70;;;;;;;;;;5116101;28;20028;-79
2022/12/04 08:16:16;;;;;;;50.47;24.20;;;;;;;;;;5100550;28;20011;-80
2022/12/04 08:19:02;;;;;;;46.00;22.67;;;;;;;;;;5100280;28;20023;-79
2022/12/04 08:21:47;;;;;;;44.90;22.02;;;;;;;;;;5116314;28;20027;-81
2022/12/04 08:24:33;;;;;;;44.63;21.88;;;;;;;;;;5102966;28;20073;-79
2022/12/04 08:27:18;;;;;;;39.03;20.88;;;;;;;;;;5118960;28;20099;-79
2022/12/04 08:30:04;;;;;;;41.60;20.63;;;;;;;;;;5118046;28;20340;-80
2022/12/04 08:32:50;;;;;;;42.03;20.25;;;;;;;;;;5118475;28;20460;-80
2022/12/04 08:35:36;;;;;;;41.90;20.20;;;;;;;;;;5118548;28;20024;-80
2022/12/04 08:38:21;;;;;;;38.47;19.85;;;;;;;;;;5118137;28;20054;-78
2022/12/04 08:41:09;;;;;;;40.78;20.00;;;;;;;;;;5117885;28;20033;-80
2022/12/04 08:43:55;;;;;;;41.25;20.23;;;;;;;;;;5117854;28;20022;-79
2022/12/04 08:46:40;;;;;;;43.20;19.90;;;;;;;;;;5117193;28;20051;-79
2022/12/04 08:49:26;;;;;;;41.70;20.17;;;;;;;;;;5118016;28;20028;-80
2022/12/04 08:52:11;;;;;;;42.22;20.08;;;;;;;;;;5118050;28;20016;-79
2022/12/04 08:54:57;;;;;;;40.85;19.60;;;;;;;;;;5117645;28;20273;-79
2022/12/04 08:57:43;;;;;;;37.50;18.65;;;;;;;;;;5117651;28;20039;-79
2022/12/04 09:00:30;;;;;;;36.63;19.60;;;;;;;;;;5118045;28;20019;-79
2022/12/04 09:03:17;;;;;;;36.75;19.13;;;;;;;;;;5102603;28;20030;-80
2022/12/04 09:06:03;;;;;;;36.38;20.05;;;;;;;;;;5117943;28;20019;-78
2022/12/04 09:08:53;;;;;;;37.08;18.88;;;;;;;;;;5102728;28;20057;-79
2022/12/04 09:11:39;;;;;;;36.33;19.17;;;;;;;;;;5117548;28;20027;-80
2022/12/04 09:14:25;;;;;;;38.78;19.25;;;;;;;;;;5117720;28;20092;-78
2022/12/04 09:17:10;;;;;;;42.85;19.83;;;;;;;;;;5102304;28;20034;-80
2022/12/04 09:19:56;;;;;;;33.65;17.63;;;;;;;;;;5117593;28;20440;-79
2022/12/04 09:22:42;;;;;;;36.47;19.15;;;;;;;;;;5103255;28;20080;-79
2022/12/04 09:25:27;;;;;;;36.95;18.73;;;;;;;;;;5120246;28;20084;-78
2022/12/04 09:28:13;;;;;;;30.83;16.77;;;;;;;;;;5114922;28;20047;-78
2022/12/04 09:30:59;;;;;;;37.42;17.15;;;;;;;;;;5117623;28;20030;-80
2022/12/04 09:33:45;;;;;;;31.17;16.42;;;;;;;;;;5102212;28;20100;-79
2022/12/04 09:36:30;;;;;;;32.92;16.85;;;;;;;;;;5102811;28;20088;-80
2022/12/04 09:39:16;;;;;;;33.60;16.17;;;;;;;;;;5101193;28;20038;-79
2022/12/04 09:42:20;;;;;;;32.88;16.00;;;;;;;;;;5101996;28;20020;-79
2022/12/04 09:45:06;;;;;;;25.95;14.10;;;;;;;;;;5116705;28;20016;-79
2022/12/04 09:47:57;;;;;;;26.70;14.25;;;;;;;;;;5101747;28;20355;-79
2022/12/04 09:50:44;;;;;;;22.88;13.32;;;;;;;;;;5101796;28;20062;-79
2022/12/04 09:53:37;;;;;;;22.90;11.88;;;;;;;;;;5101298;28;20389;-80
2022/12/04 09:56:26;;;;;;;18.63;11.05;;;;;;;;;;5116138;28;20024;-79
2022/12/04 09:59:18;;;;;;;17.75;10.63;;;;;;;;;;5117013;28;20115;-80
2022/12/04 10:02:19;;;;;;;20.40;10.77;;;;;;;;;;5101744;28;20023;-80
2022/12/04 10:05:06;;;;;;;16.80;9.95;;;;;;;;;;5116522;28;20008;-81
2022/12/04 10:07:52;;;;;;;18.80;10.65;;;;;;;;;;5101498;28;20436;-80
2022/12/04 10:10:39;;;;;;;17.67;10.57;;;;;;;;;;5115705;28;20109;-79
2022/12/04 10:13:43;;;;;;;13.85;9.15;;;;;;;;;;5101362;28;20024;-79
2022/12/04 10:16:34;;;;;;;26.45;12.88;;;;;;;;;;5116806;28;20016;-79
2022/12/04 10:19:28;;;;;;;22.33;13.32;;;;;;;;;;5115680;28;20412;-79
2022/12/04 10:22:20;;;;;;;39.53;22.58;;;;;;;;;;5100249;28;20469;-79
2022/12/04 10:25:11;;;;;;;26.58;16.58;;;;;;;;;;5115138;28;20163;-78
2022/12/04 10:27:56;;;;;;;15.27;9.38;;;;;;;;;;5115681;28;20106;-78
2022/12/04 10:30:44;;;;;;;17.35;11.60;;;;;;;;;;5115071;28;20337;-79
2022/12/04 10:33:51;;;;;;;13.32;8.32;;;;;;;;;;5114508;28;20023;-78
2022/12/04 10:36:38;;;;;;;13.30;8.10;;;;;;;;;;5115182;28;20053;-78
2022/12/04 10:39:35;;;;;;;11.48;7.47;;;;;;;;;;5115048;28;20055;-79
2022/12/04 10:42:28;;;;;;;14.77;8.27;;;;;;;;;;5114237;28;20145;-79
2022/12/04 10:45:13;;;;;;;16.50;8.18;;;;;;;;;;5114165;28;20027;-78
2022/12/04 10:47:59;;;;;;;12.40;7.63;;;;;;;;;;5099399;28;20020;-79
2022/12/04 10:50:44;;;;;;;13.38;9.07;;;;;;;;;;5100368;28;20118;-77
2022/12/04 10:53:32;;;;;;;12.25;8.00;;;;;;;;;;5114377;28;20328;-78
2022/12/04 10:56:19;;;;;;;13.05;7.78;;;;;;;;;;5099512;28;20088;-78
2022/12/04 10:59:04;;;;;;;13.15;8.85;;;;;;;;;;5115593;28;20023;-78
2022/12/04 11:01:51;;;;;;;11.55;7.97;;;;;;;;;;5115087;28;20436;-77
2022/12/04 11:04:39;;;;;;;11.25;7.45;;;;;;;;;;5114641;28;20108;-79
2022/12/04 11:07:28;;;;;;;10.27;7.15;;;;;;;;;;5116116;28;20023;-76
2022/12/04 11:10:20;;;;;;;19.42;13.23;;;;;;;;;;5115856;28;20115;-79
2022/12/04 11:13:16;;;;;;;13.02;8.77;;;;;;;;;;5100587;28;20019;-77
2022/12/04 11:16:02;;;;;;;12.60;7.95;;;;;;;;;;5115558;28;20031;-78
2022/12/04 11:18:48;;;;;;;11.18;8.15;;;;;;;;;;5116670;28;20172;-79
2022/12/04 11:21:34;;;;;;;14.25;7.68;;;;;;;;;;5116171;28;20425;-78
2022/12/04 11:24:22;;;;;;;15.00;8.32;;;;;;;;;;5114967;28;20068;-78
2022/12/04 11:27:15;;;;;;;15.82;9.88;;;;;;;;;;5115443;28;20024;-77
2022/12/04 11:30:06;;;;;;;16.63;9.95;;;;;;;;;;5100595;28;20458;-77
2022/12/04 11:32:52;;;;;;;16.38;9.23;;;;;;;;;;5116357;28;20031;-77
2022/12/04 11:35:38;;;;;;;14.50;9.32;;;;;;;;;;5115565;28;20042;-78
2022/12/04 11:38:25;;;;;;;12.23;8.00;;;;;;;;;;5114871;28;20044;-78
2022/12/04 11:41:22;;;;;;;14.88;9.32;;;;;;;;;;5115244;28;20027;-79
2022/12/04 11:44:25;;;;;;;11.30;7.88;;;;;;;;;;5114394;28;20019;-78
2022/12/04 11:47:16;;;;;;;9.95;7.20;;;;;;;;;;5114933;28;20462;-78
2022/12/04 11:50:10;;;;;;;10.88;7.70;;;;;;;;;;5115490;28;20165;-78
2022/12/04 11:53:14;;;;;;;11.35;7.10;;;;;;;;;;5115328;28;20073;-77
2022/12/04 11:56:18;;;;;;;13.77;8.70;;;;;;;;;;5115320;28;20051;-78
2022/12/04 11:59:04;;;;;;;14.75;9.25;;;;;;;;;;5117493;28;20436;-83
2022/12/04 12:02:13;;;;;;;16.60;9.30;;;;;;;;;;5106931;28;20016;-77
2022/12/04 12:05:07;;;;;;;12.65;8.13;;;;;;;;;;5119051;28;20513;-77
2022/12/04 12:07:58;;;;;;;13.60;8.35;;;;;;;;;;5119125;28;20388;-78
2022/12/04 12:10:56;;;;;;;14.10;8.73;;;;;;;;;;5104062;28;20023;-75
2022/12/04 12:13:48;;;;;;;15.05;8.25;;;;;;;;;;5115135;28;20019;-78
2022/12/04 12:16:33;;;;;;;11.55;7.50;;;;;;;;;;5106542;28;20020;-78
2022/12/04 12:19:21;;;;;;;11.95;8.05;;;;;;;;;;5118312;28;20033;-77
2022/12/04 12:22:13;;;;;;;12.73;7.80;;;;;;;;;;5118291;28;20023;-78
2022/12/04 12:25:10;;;;;;;22.40;15.02;;;;;;;;;;5103766;28;20040;-77
2022/12/04 12:28:05;;;;;;;16.88;9.57;;;;;;;;;;5103796;28;20077;-77
2022/12/04 12:31:13;;;;;;;14.07;9.20;;;;;;;;;;5117684;28;20092;-77
2022/12/04 12:34:11;;;;;;;14.07;8.10;;;;;;;;;;5127257;28;20015;-79
2022/12/04 12:36:59;;;;;;;11.68;7.78;;;;;;;;;;5105969;28;20043;-78
2022/12/04 12:40:05;;;;;;;13.10;8.13;;;;;;;;;;5117878;28;20168;-78
2022/12/04 12:43:00;;;;;;;11.00;7.28;;;;;;;;;;5089697;28;20106;-78
2022/12/04 12:45:54;;;;;;;13.60;7.78;;;;;;;;;;5118673;28;20098;-79
2022/12/04 12:48:49;;;;;;;13.27;7.72;;;;;;;;;;5117585;28;20016;-78
2022/12/04 12:51:50;;;;;;;14.82;9.23;;;;;;;;;;5118476;28;20020;-78
2022/12/04 12:54:49;;;;;;;16.17;11.20;;;;;;;;;;5103332;28;20168;-77
2022/12/04 12:57:36;;;;;;;30.30;19.45;;;;;;;;;;5118948;28;20031;-78
2022/12/04 13:00:23;;;;;;;17.33;9.63;;;;;;;;;;5117998;28;20016;-78
2022/12/04 13:03:14;;;;;;;12.60;8.65;;;;;;;;;;5117398;28;20016;-77
2022/12/04 13:06:03;;;;;;;32.42;17.98;;;;;;;;;;5117903;28;20057;-78
2022/12/04 13:09:06;;;;;;;36.33;19.77;;;;;;;;;;5117294;28;20102;-78
2022/12/04 13:12:02;;;;;;;21.30;14.15;;;;;;;;;;5117491;28;20104;-78
2022/12/04 13:14:47;;;;;;;20.67;11.75;;;;;;;;;;5102640;28;20020;-77
2022/12/04 13:17:36;;;;;;;18.02;10.45;;;;;;;;;;5102375;28;20034;-78
2022/12/04 13:20:25;;;;;;;18.13;10.82;;;;;;;;;;5117909;28;20035;-78
2022/12/04 13:23:23;;;;;;;16.00;9.63;;;;;;;;;;5118245;28;20078;-78
2022/12/04 13:26:12;;;;;;;16.50;8.93;;;;;;;;;;5102239;28;20158;-79
2022/12/04 13:29:17;;;;;;;16.30;9.02;;;;;;;;;;5117308;28;20040;-76
2022/12/04 13:32:03;;;;;;;16.70;8.50;;;;;;;;;;5115425;28;20392;-77
2022/12/04 13:34:49;;;;;;;16.52;10.50;;;;;;;;;;5116862;28;20031;-76
2022/12/04 13:37:43;;;;;;;21.80;10.82;;;;;;;;;;5101846;28;20074;-78
2022/12/04 13:40:29;;;;;;;18.23;10.18;;;;;;;;;;5102145;28;20192;-77
2022/12/04 13:43:23;;;;;;;17.65;11.70;;;;;;;;;;5102477;28;20021;-77
2022/12/04 13:46:27;;;;;;;17.52;11.00;;;;;;;;;;5116937;28;20106;-76
2022/12/04 13:49:15;;;;;;;16.95;10.82;;;;;;;;;;5102421;28;20115;-76
2022/12/04 13:52:03;;;;;;;18.40;12.77;;;;;;;;;;5116265;28;20035;-75
2022/12/04 13:54:56;;;;;;;18.92;12.85;;;;;;;;;;5117529;28;20019;-76
2022/12/04 13:57:51;;;;;;;19.67;12.85;;;;;;;;;;5116232;28;20061;-76
2022/12/04 14:00:43;;;;;;;19.55;12.57;;;;;;;;;;5102254;28;20446;-76
2022/12/04 14:03:31;;;;;;;21.23;13.88;;;;;;;;;;5116541;28;20035;-76
2022/12/04 14:06:30;;;;;;;37.42;21.38;;;;;;;;;;5102081;28;20034;-77
2022/12/04 14:09:26;;;;;;;26.92;15.48;;;;;;;;;;5100880;28;20023;-76
2022/12/04 14:12:13;;;;;;;27.30;16.33;;;;;;;;;;5102201;28;20015;-78
2022/12/04 14:15:00;;;;;;;22.70;15.02;;;;;;;;;;5101531;28;20019;-81
2022/12/04 14:17:57;;;;;;;24.90;14.82;;;;;;;;;;5100963;28;20337;-75
2022/12/04 14:20:45;;;;;;;29.30;15.25;;;;;;;;;;5114548;28;20019;-76
2022/12/04 14:23:34;;;;;;;26.55;15.15;;;;;;;;;;5115631;28;20069;-76
2022/12/04 14:26:20;;;;;;;27.15;15.80;;;;;;;;;;5101149;28;20055;-76
2022/12/04 14:29:14;;;;;;;30.50;16.65;;;;;;;;;;5101296;28;20026;-76
2022/12/04 14:32:07;;;;;;;29.45;15.80;;;;;;;;;;5100900;28;20019;-75
2022/12/04 14:34:53;;;;;;;40.85;19.23;;;;;;;;;;5101238;28;20104;-76
2022/12/04 14:37:43;;;;;;;30.88;17.73;;;;;;;;;;5100584;28;20078;-76
2022/12/04 14:40:37;;;;;;;33.97;18.60;;;;;;;;;;5117017;28;20352;-77
2022/12/04 14:43:26;;;;;;;31.90;17.65;;;;;;;;;;5102809;28;20027;-75
2022/12/04 14:46:14;;;;;;;38.55;20.65;;;;;;;;;;5126937;28;20088;-77
2022/12/04 14:49:15;;;;;;;37.15;18.25;;;;;;;;;;5109332;28;20024;-76
2022/12/04 14:52:11;;;;;;;32.33;18.48;;;;;;;;;;5101510;28;20382;-77
2022/12/04 14:55:20;;;;;;;35.25;19.88;;;;;;;;;;5099762;28;20023;-76
2022/12/04 14:58:28;;;;;;;39.85;21.25;;;;;;;;;;5116273;27;20020;-77
2022/12/04 15:01:20;;;;;;;37.10;20.38;;;;;;;;;;5103236;28;20024;-76
2022/12/04 15:04:28;;;;;;;34.42;19.50;;;;;;;;;;5107823;28;20022;-74
2022/12/04 15:07:21;;;;;;;32.33;18.63;;;;;;;;;;5122651;28;20012;-77
2022/12/04 15:13:32;;;;;;;33.15;20.00;;;;;;;;;;5070383;28;20466;-78
2022/12/04 15:16:19;;;;;;;40.05;20.38;;;;;;;;;;5114272;28;20047;-78
2022/12/04 15:19:04;;;;;;;35.13;19.88;;;;;;;;;;5115742;28;20024;-78
2022/12/04 15:21:50;;;;;;;34.40;20.58;;;;;;;;;;5100213;28;20023;-77
2022/12/04 15:24:36;;;;;;;40.22;23.70;;;;;;;;;;5115539;28;20024;-79
2022/12/04 15:27:24;;;;;;;32.10;18.85;;;;;;;;;;5114908;28;20077;-77
2022/12/04 15:30:17;;;;;;;34.72;20.08;;;;;;;;;;5115385;28;20151;-78
2022/12/04 15:33:03;;;;;;;39.22;22.60;;;;;;;;;;5113877;28;20053;-78
2022/12/04 15:35:50;;;;;;;178.15;112.03;;;;;;;;;;5113388;28;20027;-78
2022/12/04 15:38:36;;;;;;;38.25;21.27;;;;;;;;;;5099675;28;20043;-80
2022/12/04 15:41:28;;;;;;;41.10;23.38;;;;;;;;;;5115060;28;20016;-79
2022/12/04 15:44:40;;;;;;;35.90;21.20;;;;;;;;;;5100358;28;20016;-79
2022/12/04 15:47:35;;;;;;;36.35;21.65;;;;;;;;;;5115742;28;20060;-79
2022/12/04 15:50:25;;;;;;;39.58;22.95;;;;;;;;;;5114850;28;20407;-79
2022/12/04 15:53:14;;;;;;;37.35;22.10;;;;;;;;;;5116101;28;20070;-79
2022/12/04 15:56:02;;;;;;;35.67;21.65;;;;;;;;;;5114170;28;20443;-79
2022/12/04 15:58:59;;;;;;;37.05;22.38;;;;;;;;;;5115091;28;20032;-79
2022/12/04 16:01:44;;;;;;;41.05;21.15;;;;;;;;;;5100904;28;20030;-76
2022/12/04 16:04:34;;;;;;;37.85;22.30;;;;;;;;;;5114000;28;20443;-75
2022/12/04 16:07:27;;;;;;;48.05;27.25;;;;;;;;;;5100079;28;20026;-75
2022/12/04 16:10:21;;;;;;;43.38;24.02;;;;;;;;;;5115259;28;20019;-76
2022/12/04 16:13:25;;;;;;;42.83;25.77;;;;;;;;;;5114930;28;20051;-75
2022/12/04 16:16:12;;;;;;;37.88;22.40;;;;;;;;;;5099664;28;20020;-76
2022/12/04 16:19:07;;;;;;;43.72;23.88;;;;;;;;;;5114687;28;20024;-76
2022/12/04 16:21:53;;;;;;;41.30;24.38;;;;;;;;;;5098565;28;20356;-76
2022/12/04 16:24:39;;;;;;;38.60;21.73;;;;;;;;;;5114749;28;20020;-76
2022/12/04 16:27:25;;;;;;;38.42;21.05;;;;;;;;;;5114391;28;20074;-76
2022/12/04 16:30:12;;;;;;;31.23;18.17;;;;;;;;;;5114073;28;20019;-76
2022/12/04 16:32:57;;;;;;;37.42;19.75;;;;;;;;;;5114839;28;20102;-77
2022/12/04 16:35:43;;;;;;;42.50;23.10;;;;;;;;;;5114086;28;20020;-76
2022/12/04 16:38:28;;;;;;;35.70;20.45;;;;;;;;;;5113038;28;20070;-77
2022/12/04 16:41:18;;;;;;;33.85;20.52;;;;;;;;;;5100881;28;20471;-78
2022/12/04 16:44:08;;;;;;;37.67;19.50;;;;;;;;;;5099993;28;20512;-77
2022/12/04 16:46:53;;;;;;;32.60;19.38;;;;;;;;;;5118522;28;20043;-77